Terminal Aerodrome Forecast
Issued by NWS Grand Rapids, MI

Home | Current Version | Previous Version | Text Only | Print | Product List | Glossary On
Versions: 1 2 3 4 5 6 7 8 9 10 11 12 13 14 15 16 17 18 19 20 21 22 23 24 25 26
821
FTUS43 KGRR 100535
TAFGRR
TAF
KGRR 100535Z 1006/1106 27007KT 4SM -SN BR BKN035
     FM100700 28006KT 5SM -SN BR SCT035 OVC050
     FM101200 28009KT 1 1/2SM -SN BR VV009
     FM101800 27009KT 6SM -SN OVC025
     FM110300 20006KT 2SM -SN OVC020=

USA.gov is the U.S. government's official web portal to all federal, state and local government web resources and services.